Terminal Aerodrome Forecast
Issued by NWS Charleston, WV

Current Version | Previous Version | Text Only | Print | Product List | Glossary Off
Versions: 1 2 3 4 5 6 7 8 9 10 11 12 13 14 15 16 17 18 19 20

000
FTUS41 KRLX 271144
TAFBKW
TAF
KBKW 271144Z 2712/2812 00000KT 1SM BR BKN002
     FM271300 VRB03KT 4SM BR BKN010
     FM271400 02004KT P6SM SCT020
     FM271800 03006KT P6SM SCT035
     FM272100 03006KT P6SM SCT045
     FM280100 00000KT P6SM SKC=

USA.gov is the U.S. government's official web portal to all federal, state and local government web resources and services.